createdAt,value
2018-07-11T00:09:26.263Z,14.10
2018-07-11T00:11:54.775Z,14.20
2018-07-11T00:14:23.233Z,14.20
2018-07-11T00:16:57.196Z,14.00
2018-07-11T00:19:25.652Z,14.20
2018-07-11T00:21:54.181Z,14.20
2018-07-11T00:24:22.987Z,14.20
2018-07-11T00:26:51.548Z,14.20
2018-07-11T00:29:20.072Z,13.90
2018-07-11T00:31:48.613Z,13.80
2018-07-11T00:36:45.938Z,13.60
2018-07-11T00:39:14.471Z,13.80
2018-07-11T00:41:42.986Z,13.70
2018-07-11T00:44:11.538Z,13.80
2018-07-11T00:46:40.054Z,13.80
2018-07-11T00:49:08.731Z,13.90
2018-07-11T00:51:37.251Z,13.70
2018-07-11T00:54:05.823Z,13.80
2018-07-11T00:56:34.348Z,13.80
2018-07-11T00:59:15.031Z,13.80
2018-07-11T01:01:43.589Z,13.80
2018-07-11T01:04:12.477Z,13.70
2018-07-11T01:06:41.054Z,13.70
2018-07-11T01:09:09.642Z,13.80
2018-07-11T01:11:38.494Z,13.60
2018-07-11T01:14:07.071Z,13.70
2018-07-11T01:16:35.532Z,13.80
2018-07-11T01:19:06.336Z,13.90
2018-07-11T01:21:35.611Z,14.00
2018-07-11T01:24:04.243Z,14.00
2018-07-11T01:26:33.789Z,14.00
2018-07-11T01:29:02.413Z,14.00
2018-07-11T01:31:30.914Z,13.90
2018-07-11T01:33:59.838Z,13.90
2018-07-11T01:36:28.753Z,14.00
2018-07-11T01:38:58.031Z,14.10
2018-07-11T01:41:26.969Z,14.10
2018-07-11T01:43:55.742Z,14.10
2018-07-11T01:46:24.336Z,14.20
2018-07-11T01:48:52.838Z,14.40
2018-07-11T01:51:27.416Z,14.50
2018-07-11T01:53:56.216Z,14.40
2018-07-11T01:56:33.263Z,14.40
2018-07-11T01:59:01.765Z,14.50
2018-07-11T02:01:30.303Z,14.50
2018-07-11T02:03:58.778Z,14.30
2018-07-11T02:06:27.615Z,14.20
2018-07-11T02:08:56.098Z,14.10
2018-07-11T02:11:24.647Z,14.00
2018-07-11T02:13:53.152Z,14.00
2018-07-11T02:16:21.713Z,14.00
2018-07-11T02:18:50.235Z,14.10
2018-07-11T02:21:18.742Z,14.20
2018-07-11T02:23:47.235Z,14.30
2018-07-11T02:26:15.771Z,14.20
2018-07-11T02:28:44.253Z,14.30
2018-07-11T02:31:12.731Z,14.00
2018-07-11T02:33:41.236Z,14.10
2018-07-11T02:36:10.075Z,14.10
2018-07-11T02:38:38.567Z,14.00
2018-07-11T02:41:07.054Z,13.80
2018-07-11T02:43:35.570Z,14.10
2018-07-11T02:46:04.063Z,14.20
2018-07-11T02:48:32.564Z,14.10
2018-07-11T02:51:01.093Z,14.00
2018-07-11T02:53:29.599Z,14.00
2018-07-11T02:55:58.062Z,13.80
2018-07-11T02:58:26.509Z,13.90
2018-07-11T03:00:54.964Z,13.90
2018-07-11T03:03:23.416Z,14.00
2018-07-11T03:05:51.863Z,14.10
2018-07-11T03:08:20.318Z,14.20
2018-07-11T03:10:48.843Z,14.30
2018-07-11T03:13:21.700Z,14.30
2018-07-11T03:15:50.227Z,14.30
2018-07-11T03:18:20.738Z,14.30
2018-07-11T03:20:49.223Z,14.20
2018-07-11T03:23:17.705Z,14.20
2018-07-11T03:25:46.777Z,13.80
2018-07-11T03:28:15.287Z,13.80
2018-07-11T03:30:44.099Z,13.80
2018-07-11T03:33:12.603Z,14.00
2018-07-11T03:35:41.051Z,14.10
2018-07-11T03:38:09.823Z,13.90
2018-07-11T03:40:38.307Z,14.00
2018-07-11T03:43:06.757Z,14.00
2018-07-11T03:45:35.877Z,14.10
2018-07-11T03:48:04.356Z,14.20
2018-07-11T03:50:32.854Z,14.20
2018-07-11T03:53:01.320Z,14.00
2018-07-11T03:55:29.763Z,14.00
2018-07-11T03:57:58.296Z,13.90
2018-07-11T04:00:27.067Z,13.90
2018-07-11T04:02:56.662Z,14.00
2018-07-11T04:05:25.106Z,14.10
2018-07-11T04:07:53.563Z,14.30
2018-07-11T04:10:21.994Z,14.30
2018-07-11T04:12:56.307Z,14.00
2018-07-11T04:15:24.760Z,14.10
2018-07-11T04:17:53.575Z,14.20
2018-07-11T04:20:21.990Z,14.10
2018-07-11T04:22:50.460Z,14.10
2018-07-11T04:25:19.174Z,13.90
2018-07-11T04:27:48.016Z,13.80
2018-07-11T04:30:16.680Z,13.90
2018-07-11T04:32:51.600Z,13.80
2018-07-11T04:35:20.368Z,13.90
2018-07-11T04:37:48.818Z,13.80
2018-07-11T04:40:17.247Z,13.90
2018-07-11T04:42:45.737Z,13.70
2018-07-11T04:45:14.211Z,13.70
2018-07-11T04:47:42.973Z,13.50
2018-07-11T04:50:11.451Z,13.70
2018-07-11T04:52:39.953Z,13.70
2018-07-11T04:55:08.423Z,13.80
2018-07-11T04:57:36.887Z,13.90
2018-07-11T05:00:05.323Z,14.10
2018-07-11T05:02:33.762Z,14.00
2018-07-11T05:05:02.198Z,14.00
2018-07-11T05:09:58.721Z,14.10
2018-07-11T05:12:27.777Z,14.10
2018-07-11T05:14:56.222Z,14.10
2018-07-11T05:17:24.691Z,14.00
2018-07-11T05:19:53.421Z,14.00
2018-07-11T05:22:21.857Z,14.00
2018-07-11T05:24:50.518Z,14.10
2018-07-11T05:27:18.979Z,14.10
2018-07-11T05:29:47.409Z,14.30
2018-07-11T05:32:15.963Z,14.40
2018-07-11T05:34:44.379Z,14.50
2018-07-11T05:37:13.078Z,14.60
2018-07-11T05:39:41.539Z,14.70
2018-07-11T05:42:10.007Z,14.80
2018-07-11T05:44:38.455Z,14.80
2018-07-11T05:47:07.491Z,15.00
2018-07-11T05:49:36.228Z,15.30
2018-07-11T05:52:04.953Z,15.40
2018-07-11T05:54:34.534Z,15.50
2018-07-11T05:57:03.343Z,15.50
2018-07-11T05:59:31.811Z,15.50
2018-07-11T06:02:00.719Z,15.40
2018-07-11T06:04:29.223Z,15.60
2018-07-11T06:06:57.742Z,15.50
2018-07-11T06:09:26.182Z,15.40
2018-07-11T06:11:54.658Z,15.40
2018-07-11T06:14:23.105Z,15.40
2018-07-11T06:16:51.842Z,15.50
2018-07-11T06:19:20.260Z,15.50
2018-07-11T06:21:50.068Z,15.70
2018-07-11T06:24:19.251Z,15.80
2018-07-11T06:26:48.074Z,15.70
2018-07-11T06:29:16.534Z,15.80
2018-07-11T06:31:45.032Z,16.10
2018-07-11T06:34:13.434Z,15.90
2018-07-11T06:36:41.941Z,16.10
2018-07-11T06:39:10.424Z,16.00
2018-07-11T06:41:38.883Z,15.70
2018-07-11T06:44:07.351Z,15.80
2018-07-11T06:46:35.804Z,15.80
2018-07-11T06:49:04.299Z,15.80
2018-07-11T06:51:32.709Z,15.70
2018-07-11T06:54:01.144Z,15.70
2018-07-11T06:56:30.069Z,16.00
2018-07-11T06:58:58.508Z,15.80
2018-07-11T07:01:26.959Z,15.80
2018-07-11T07:03:55.385Z,16.30
2018-07-11T07:06:24.724Z,16.80
2018-07-11T07:08:53.403Z,17.20
2018-07-11T07:11:21.855Z,17.30
2018-07-11T07:13:50.367Z,17.20
2018-07-11T07:16:18.818Z,17.30
2018-07-11T07:18:47.235Z,17.40
2018-07-11T07:21:15.663Z,17.60
2018-07-11T07:23:44.114Z,18.00
2018-07-11T07:26:12.534Z,18.20
2018-07-11T07:28:40.948Z,18.10
2018-07-11T07:31:09.362Z,17.70
2018-07-11T07:33:37.807Z,17.00
2018-07-11T07:36:06.240Z,17.00
2018-07-11T07:38:39.862Z,17.00
2018-07-11T07:41:08.918Z,16.90
2018-07-11T07:43:37.787Z,16.80
2018-07-11T07:46:06.363Z,17.00
2018-07-11T07:48:34.858Z,17.10
2018-07-11T07:51:03.334Z,17.30
2018-07-11T07:53:31.848Z,17.70
2018-07-11T07:56:00.329Z,18.10
2018-07-11T07:58:28.819Z,18.80
2018-07-11T08:00:57.298Z,19.00
2018-07-11T08:03:25.950Z,18.90
2018-07-11T08:05:54.376Z,18.10
2018-07-11T08:08:22.793Z,18.20
2018-07-11T08:10:51.214Z,18.30
2018-07-11T08:13:19.686Z,18.30
2018-07-11T08:15:48.119Z,18.70
2018-07-11T08:18:16.601Z,19.20
2018-07-11T08:20:45.041Z,19.70
2018-07-11T08:23:39.138Z,19.70
2018-07-11T08:26:18.923Z,19.50
2018-07-11T08:28:56.174Z,19.20
2018-07-11T08:31:45.067Z,18.80
2018-07-11T08:34:23.502Z,18.10
2018-07-11T08:38:12.038Z,18.10
2018-07-11T08:42:58.111Z,18.50
2018-07-11T08:45:41.791Z,18.20
2018-07-11T08:48:41.455Z,18.50
2018-07-11T08:51:22.898Z,18.40
2018-07-11T08:54:04.974Z,18.60
2018-07-11T08:57:42.425Z,18.70
2018-07-11T09:02:28.197Z,18.70
2018-07-11T09:05:10.774Z,18.80
2018-07-11T09:07:50.428Z,19.00
2018-07-11T09:10:34.017Z,18.90
2018-07-11T09:13:13.789Z,19.20
2018-07-11T09:15:53.575Z,19.40
2018-07-11T09:19:02.127Z,19.70
2018-07-11T09:23:38.422Z,19.80
2018-07-11T09:26:06.875Z,19.60
2018-07-11T09:28:35.346Z,19.90
2018-07-11T09:31:03.851Z,20.10
2018-07-11T09:33:32.678Z,20.00
2018-07-11T09:36:01.166Z,19.90
2018-07-11T09:38:29.606Z,19.90
2018-07-11T09:40:58.417Z,19.90
2018-07-11T09:43:27.214Z,20.10
2018-07-11T09:45:55.717Z,20.00
2018-07-11T09:48:24.249Z,20.00
2018-07-11T09:50:52.762Z,20.00
2018-07-11T09:53:21.663Z,20.30
2018-07-11T09:55:50.169Z,20.40
2018-07-11T09:58:18.690Z,20.70
2018-07-11T10:00:52.610Z,21.30
2018-07-11T10:03:21.162Z,21.20
2018-07-11T10:05:49.662Z,21.80
2018-07-11T10:08:18.148Z,21.60
2018-07-11T10:10:46.615Z,21.50
2018-07-11T10:13:15.079Z,21.40
2018-07-11T10:15:43.880Z,21.30
2018-07-11T10:18:12.373Z,21.10
2018-07-11T10:20:40.827Z,20.90
2018-07-11T10:23:09.312Z,20.90
2018-07-11T10:25:37.779Z,20.60
2018-07-11T10:28:13.082Z,20.50
2018-07-11T10:30:41.521Z,20.20
2018-07-11T10:33:10.405Z,20.60
2018-07-11T10:35:38.867Z,21.40
2018-07-11T10:38:07.325Z,22.10
2018-07-11T10:40:35.778Z,22.60
2018-07-11T10:43:04.256Z,22.50
2018-07-11T10:45:32.699Z,22.30
2018-07-11T10:48:01.191Z,22.90
2018-07-11T10:50:29.999Z,22.70
2018-07-11T10:52:58.461Z,22.30
2018-07-11T10:55:26.903Z,22.20
2018-07-11T10:57:55.689Z,22.30
2018-07-11T11:00:36.668Z,22.00
2018-07-11T11:02:59.552Z,22.00
2018-07-11T11:05:28.010Z,22.40
2018-07-11T11:07:56.501Z,22.30
2018-07-11T11:10:24.925Z,22.50
2018-07-11T11:12:53.456Z,22.40
2018-07-11T11:15:21.963Z,22.10
2018-07-11T11:17:50.428Z,22.20
2018-07-11T11:20:18.926Z,22.40
2018-07-11T11:22:47.385Z,22.60
2018-07-11T11:25:15.855Z,22.90
2018-07-11T11:27:44.287Z,23.40
2018-07-11T11:30:12.779Z,23.40
2018-07-11T11:32:41.513Z,23.90
2018-07-11T11:35:09.982Z,23.80
2018-07-11T11:37:38.419Z,23.70
2018-07-11T11:40:06.962Z,23.70
2018-07-11T11:42:35.683Z,24.10
2018-07-11T11:45:03.957Z,24.10
2018-07-11T11:47:32.431Z,23.80
2018-07-11T11:50:00.943Z,23.70
2018-07-11T11:52:29.426Z,23.10
2018-07-11T11:54:57.922Z,22.80
2018-07-11T11:57:26.402Z,22.60
2018-07-11T11:59:54.874Z,22.50
2018-07-11T12:02:23.377Z,22.40
2018-07-11T12:04:52.195Z,21.70
2018-07-11T12:07:20.668Z,20.80
2018-07-11T12:09:49.130Z,19.10
2018-07-11T12:12:17.570Z,18.10
2018-07-11T12:14:46.372Z,17.40
2018-07-11T12:17:14.810Z,17.70
2018-07-11T12:19:45.182Z,17.20
2018-07-11T12:22:21.315Z,17.20
2018-07-11T12:24:49.926Z,17.50
2018-07-11T12:27:19.047Z,17.60
2018-07-11T12:29:47.898Z,17.60
2018-07-11T12:32:16.290Z,17.70
2018-07-11T12:34:44.795Z,17.80
2018-07-11T12:37:13.727Z,17.70
2018-07-11T12:39:42.466Z,18.00
2018-07-11T12:42:10.942Z,18.40
2018-07-11T12:44:39.402Z,18.60
2018-07-11T12:47:13.269Z,18.50
2018-07-11T12:49:41.728Z,18.20
2018-07-11T12:52:10.417Z,18.40
2018-07-11T12:54:38.944Z,18.60
2018-07-11T12:57:08.199Z,18.80
2018-07-11T12:59:36.733Z,19.10
2018-07-11T13:02:05.427Z,19.50
2018-07-11T13:04:33.935Z,19.50
2018-07-11T13:07:02.875Z,19.60
2018-07-11T13:09:31.670Z,19.80
2018-07-11T13:12:01.026Z,19.60
2018-07-11T13:14:29.522Z,19.50
2018-07-11T13:16:57.974Z,19.50
2018-07-11T13:19:26.456Z,19.70
2018-07-11T13:21:54.942Z,19.60
2018-07-11T13:24:23.491Z,19.80
2018-07-11T13:26:51.957Z,20.00
2018-07-11T13:29:20.400Z,20.40
2018-07-11T13:31:48.867Z,20.60
2018-07-11T13:34:17.374Z,20.80
2018-07-11T13:36:45.863Z,20.70
2018-07-11T13:39:16.748Z,20.30
2018-07-11T13:44:14.275Z,20.70
2018-07-11T13:46:42.770Z,21.10
2018-07-11T13:49:11.799Z,21.40
2018-07-11T13:54:08.830Z,22.00
2018-07-11T13:56:37.315Z,22.40
2018-07-11T13:59:05.784Z,22.80
2018-07-11T14:01:34.814Z,22.80
2018-07-11T14:04:03.844Z,22.80
2018-07-11T14:06:32.380Z,22.70
2018-07-11T14:09:01.295Z,22.70
2018-07-11T14:11:29.886Z,22.70
2018-07-11T14:13:58.454Z,22.60
2018-07-11T14:16:26.991Z,22.60
2018-07-11T14:18:55.490Z,22.40
2018-07-11T14:21:24.244Z,22.20
2018-07-11T14:23:53.071Z,22.00
2018-07-11T14:26:21.822Z,21.60
2018-07-11T14:28:51.742Z,21.40
2018-07-11T14:31:31.610Z,21.10
2018-07-11T14:34:02.523Z,21.10
2018-07-11T14:36:31.626Z,21.10
2018-07-11T14:39:00.206Z,21.00
2018-07-11T14:41:29.042Z,21.10
2018-07-11T14:43:57.983Z,20.90
2018-07-11T14:46:28.133Z,20.70
2018-07-11T14:48:56.786Z,20.70
2018-07-11T14:51:25.710Z,20.60
2018-07-11T14:53:55.740Z,20.60
2018-07-11T14:56:24.275Z,20.60
2018-07-11T14:58:54.725Z,20.60
2018-07-11T15:01:23.631Z,20.50
2018-07-11T15:03:52.185Z,20.40
2018-07-11T15:06:20.981Z,20.40
2018-07-11T15:08:49.503Z,20.30
2018-07-11T15:11:18.315Z,20.30
2018-07-11T15:13:46.866Z,20.20
2018-07-11T15:16:15.315Z,20.10
2018-07-11T15:18:44.004Z,19.90
2018-07-11T15:21:12.677Z,19.60
2018-07-11T15:23:41.150Z,19.80
2018-07-11T15:26:09.615Z,19.80
2018-07-11T15:28:38.082Z,19.70
2018-07-11T15:31:06.806Z,19.60
2018-07-11T15:33:35.275Z,19.50
2018-07-11T15:36:03.796Z,19.50
2018-07-11T15:38:32.574Z,19.60
2018-07-11T15:41:02.012Z,19.60
2018-07-11T15:43:31.251Z,19.60
2018-07-11T15:45:59.894Z,19.00
2018-07-11T15:48:29.051Z,19.00
2018-07-11T15:50:57.936Z,18.90
2018-07-11T15:53:27.317Z,19.00
2018-07-11T15:55:55.817Z,18.90
2018-07-11T15:58:26.545Z,19.00
2018-07-11T16:00:55.651Z,18.90
2018-07-11T16:03:26.130Z,19.00
2018-07-11T16:05:55.699Z,19.00
2018-07-11T16:08:24.430Z,18.90
2018-07-11T16:10:56.169Z,19.10
2018-07-11T16:13:24.872Z,19.00
2018-07-11T16:15:53.398Z,19.10
2018-07-11T16:20:50.029Z,19.10
2018-07-11T16:23:18.553Z,18.80
2018-07-11T16:25:47.367Z,18.70
2018-07-11T16:28:15.881Z,18.60
2018-07-11T16:30:44.679Z,18.50
2018-07-11T16:33:13.103Z,18.40
2018-07-11T16:35:41.557Z,18.40
2018-07-11T16:38:10.040Z,18.40
2018-07-11T16:40:38.507Z,18.60
2018-07-11T16:43:07.332Z,18.60
2018-07-11T16:45:35.778Z,18.60
2018-07-11T16:48:04.248Z,18.70
2018-07-11T16:50:32.731Z,18.90
2018-07-11T16:53:01.210Z,18.80
2018-07-11T16:55:30.182Z,18.80
2018-07-11T16:57:59.007Z,18.90
2018-07-11T17:00:30.414Z,19.10
2018-07-11T17:06:02.922Z,19.00
2018-07-11T17:08:33.766Z,19.00
2018-07-11T17:11:13.362Z,18.90
2018-07-11T17:13:46.066Z,18.90
2018-07-11T17:16:17.483Z,18.80
2018-07-11T17:18:48.329Z,18.90
2018-07-11T17:21:26.567Z,18.70
2018-07-11T17:24:00.789Z,18.70
2018-07-11T17:26:29.446Z,18.60
2018-07-11T17:28:59.922Z,18.50
2018-07-11T17:31:29.245Z,18.60
2018-07-11T17:33:58.964Z,18.50
2018-07-11T17:36:31.567Z,18.50
2018-07-11T17:39:00.118Z,18.30
2018-07-11T17:41:29.376Z,18.30
2018-07-11T17:43:58.634Z,18.30
2018-07-11T17:46:27.174Z,18.20
2018-07-11T17:49:06.890Z,18.10
2018-07-11T17:51:47.838Z,17.90
2018-07-11T17:54:16.814Z,18.00
2018-07-11T17:56:58.239Z,18.10
2018-07-11T18:00:04.807Z,18.30
2018-07-11T18:02:39.793Z,18.10
2018-07-11T18:05:18.742Z,18.10
2018-07-11T18:07:49.588Z,18.00
2018-07-11T18:10:33.118Z,18.00
2018-07-11T18:13:14.294Z,17.80
2018-07-11T18:16:53.225Z,17.70
2018-07-11T18:19:33.696Z,17.70
2018-07-11T18:22:13.683Z,17.80
2018-07-11T18:24:51.614Z,17.60
2018-07-11T18:27:31.336Z,17.70
2018-07-11T18:30:12.502Z,17.60
2018-07-11T18:32:50.838Z,17.60
2018-07-11T18:38:28.960Z,17.50
2018-07-11T18:41:13.307Z,17.40
2018-07-11T18:43:53.495Z,17.70
2018-07-11T18:46:36.183Z,17.50
2018-07-11T18:49:29.143Z,17.40
2018-07-11T18:52:39.839Z,17.30
2018-07-11T18:55:20.827Z,17.20
2018-07-11T18:58:11.295Z,17.20
2018-07-11T19:00:44.108Z,17.20
2018-07-11T19:03:46.252Z,17.10
2018-07-11T19:06:35.963Z,17.00
2018-07-11T19:09:08.491Z,17.00
2018-07-11T19:11:55.192Z,17.00
2018-07-11T19:14:40.919Z,16.90
2018-07-11T19:17:23.603Z,16.80
2018-07-11T19:20:03.168Z,16.80
2018-07-11T19:23:11.878Z,16.80
2018-07-11T19:25:53.556Z,16.60
2018-07-11T19:30:36.814Z,16.60
2018-07-11T19:34:20.529Z,16.50
2018-07-11T19:37:01.312Z,16.30
2018-07-11T19:40:40.944Z,16.30
2018-07-11T19:43:15.782Z,16.40
2018-07-11T19:45:54.816Z,16.50
2018-07-11T19:48:45.977Z,16.40
2018-07-11T19:51:24.443Z,16.30
2018-07-11T19:54:08.950Z,16.30
2018-07-11T19:56:44.209Z,16.30
2018-07-11T19:59:12.984Z,16.20
2018-07-11T20:01:41.594Z,16.10
2018-07-11T20:04:11.289Z,16.10
2018-07-11T20:06:40.146Z,16.10
2018-07-11T20:09:09.261Z,16.10
2018-07-11T20:11:37.858Z,16.10
2018-07-11T20:14:06.576Z,16.20
2018-07-11T20:16:35.124Z,16.30
2018-07-11T20:19:03.859Z,16.40
2018-07-11T20:21:32.473Z,16.30
2018-07-11T20:24:01.327Z,16.30
2018-07-11T20:26:30.212Z,16.30
2018-07-11T20:28:58.748Z,16.30
2018-07-11T20:31:27.266Z,16.40
2018-07-11T20:33:55.727Z,16.30
2018-07-11T20:36:24.211Z,16.30
2018-07-11T20:38:52.756Z,16.10
2018-07-11T20:41:21.271Z,16.10
2018-07-11T20:43:49.803Z,16.40
2018-07-11T20:46:18.390Z,16.20
2018-07-11T20:48:46.971Z,16.10
2018-07-11T20:51:15.475Z,16.30
2018-07-11T20:53:43.976Z,16.30
2018-07-11T20:56:12.476Z,16.30
2018-07-11T20:58:52.266Z,16.20
2018-07-11T21:01:32.081Z,16.20
2018-07-11T21:05:19.849Z,16.10
2018-07-11T21:10:04.710Z,16.10
2018-07-11T21:12:44.968Z,16.10
2018-07-11T21:17:01.655Z,16.20
2018-07-11T21:19:30.272Z,16.30
2018-07-11T21:21:58.770Z,16.20
2018-07-11T21:24:27.301Z,16.10
2018-07-11T21:26:55.820Z,16.00
2018-07-11T21:29:24.347Z,16.00
2018-07-11T21:31:53.222Z,15.90
2018-07-11T21:34:21.797Z,16.00
2018-07-11T21:36:50.298Z,16.10
2018-07-11T21:39:18.877Z,16.10
2018-07-11T21:41:47.706Z,16.20
2018-07-11T21:44:16.330Z,16.10
2018-07-11T21:46:44.888Z,16.10
2018-07-11T21:49:17.622Z,16.00
2018-07-11T21:51:46.121Z,15.90
2018-07-11T21:54:14.726Z,15.90
2018-07-11T21:56:43.231Z,15.90
2018-07-11T21:59:12.108Z,15.80
2018-07-11T22:01:42.055Z,15.90
2018-07-11T22:04:10.671Z,15.80
2018-07-11T22:06:39.256Z,15.90
2018-07-11T22:09:07.800Z,15.90
2018-07-11T22:11:36.303Z,16.00
2018-07-11T22:14:04.827Z,16.00
2018-07-11T22:16:33.637Z,15.90
2018-07-11T22:19:02.150Z,15.90
2018-07-11T22:21:29.573Z,15.80
2018-07-11T22:23:56.912Z,15.80
2018-07-11T22:26:24.304Z,15.90
2018-07-11T22:28:51.635Z,15.80
2018-07-11T22:31:18.988Z,15.80
2018-07-11T22:33:46.621Z,15.70
2018-07-11T22:38:41.815Z,15.60
2018-07-11T22:41:09.202Z,15.60
2018-07-11T22:43:36.907Z,15.70
2018-07-11T22:46:04.274Z,15.70
2018-07-11T22:48:31.620Z,15.60
2018-07-11T22:50:58.996Z,15.60
2018-07-11T22:53:26.345Z,15.70
2018-07-11T22:55:54.048Z,15.70
2018-07-11T22:58:21.412Z,15.70
2018-07-11T23:00:48.775Z,15.80
2018-07-11T23:03:16.133Z,15.80
2018-07-11T23:05:43.490Z,15.80
2018-07-11T23:08:10.860Z,15.80
2018-07-11T23:10:38.224Z,15.80
2018-07-11T23:13:05.568Z,15.70
2018-07-11T23:15:33.270Z,15.60
2018-07-11T23:18:00.611Z,15.60
2018-07-11T23:20:29.153Z,15.70
2018-07-11T23:22:56.467Z,15.60
2018-07-11T23:25:24.113Z,15.60
2018-07-11T23:27:52.011Z,15.60
2018-07-11T23:30:19.367Z,15.60
2018-07-11T23:32:46.707Z,15.40
2018-07-11T23:35:14.055Z,15.50
2018-07-11T23:37:41.387Z,15.50
2018-07-11T23:40:08.820Z,15.50
2018-07-11T23:42:36.474Z,15.50
2018-07-11T23:45:03.831Z,15.40
2018-07-11T23:47:31.752Z,15.40
2018-07-11T23:49:59.132Z,15.50
2018-07-11T23:52:26.478Z,15.40
2018-07-11T23:54:53.841Z,15.50
2018-07-11T23:57:21.187Z,15.20
2018-07-11T23:59:48.570Z,15.20
